sensor_id;sensor_type;location;lat;lon;timestamp;temperature;humidity
57709;SHT35;42558;52.388;13.390;2023-03-05T00:01:44;3.09;75.88
57709;SHT35;42558;52.388;13.390;2023-03-05T00:04:13;3.08;76.03
57709;SHT35;42558;52.388;13.390;2023-03-05T00:06:44;3.05;76.41
57709;SHT35;42558;52.388;13.390;2023-03-05T00:09:14;3.02;76.87
57709;SHT35;42558;52.388;13.390;2023-03-05T00:11:44;2.96;77.63
57709;SHT35;42558;52.388;13.390;2023-03-05T00:14:13;2.87;78.77
57709;SHT35;42558;52.388;13.390;2023-03-05T00:16:43;2.81;79.37
57709;SHT35;42558;52.388;13.390;2023-03-05T00:19:13;2.75;80.10
57709;SHT35;42558;52.388;13.390;2023-03-05T00:21:43;2.63;81.18
57709;SHT35;42558;52.388;13.390;2023-03-05T00:24:14;2.55;82.35
57709;SHT35;42558;52.388;13.390;2023-03-05T00:26:47;2.47;83.19
57709;SHT35;42558;52.388;13.390;2023-03-05T00:29:17;2.42;83.57
57709;SHT35;42558;52.388;13.390;2023-03-05T00:31:50;2.38;83.96
57709;SHT35;42558;52.388;13.390;2023-03-05T00:34:19;2.33;84.05
57709;SHT35;42558;52.388;13.390;2023-03-05T00:36:50;2.32;84.20
57709;SHT35;42558;52.388;13.390;2023-03-05T00:39:20;2.30;84.27
57709;SHT35;42558;52.388;13.390;2023-03-05T00:41:51;2.29;84.33
57709;SHT35;42558;52.388;13.390;2023-03-05T00:44:21;2.29;84.42
57709;SHT35;42558;52.388;13.390;2023-03-05T00:46:51;2.29;84.42
57709;SHT35;42558;52.388;13.390;2023-03-05T00:49:21;2.29;84.47
57709;SHT35;42558;52.388;13.390;2023-03-05T00:51:51;2.26;84.38
57709;SHT35;42558;52.388;13.390;2023-03-05T00:54:21;2.27;84.28
57709;SHT35;42558;52.388;13.390;2023-03-05T00:56:51;2.25;83.54
57709;SHT35;42558;52.388;13.390;2023-03-05T00:59:21;2.29;82.31
57709;SHT35;42558;52.388;13.390;2023-03-05T01:01:50;2.34;80.98
57709;SHT35;42558;52.388;13.390;2023-03-05T01:04:21;2.40;79.47
57709;SHT35;42558;52.388;13.390;2023-03-05T01:06:50;2.43;78.46
57709;SHT35;42558;52.388;13.390;2023-03-05T01:09:20;2.45;77.81
57709;SHT35;42558;52.388;13.390;2023-03-05T01:11:53;2.45;76.98
57709;SHT35;42558;52.388;13.390;2023-03-05T01:14:23;2.46;76.22
57709;SHT35;42558;52.388;13.390;2023-03-05T01:16:53;2.49;75.39
57709;SHT35;42558;52.388;13.390;2023-03-05T01:19:23;2.48;74.89
57709;SHT35;42558;52.388;13.390;2023-03-05T01:21:53;2.47;74.60
57709;SHT35;42558;52.388;13.390;2023-03-05T01:24:23;2.44;74.57
57709;SHT35;42558;52.388;13.390;2023-03-05T01:26:53;2.43;74.31
57709;SHT35;42558;52.388;13.390;2023-03-05T01:29:23;2.40;74.25
57709;SHT35;42558;52.388;13.390;2023-03-05T01:31:52;2.39;73.76
57709;SHT35;42558;52.388;13.390;2023-03-05T01:34:20;2.39;73.53
57709;SHT35;42558;52.388;13.390;2023-03-05T01:36:48;2.38;73.32
57709;SHT35;42558;52.388;13.390;2023-03-05T01:39:17;2.35;72.89
57709;SHT35;42558;52.388;13.390;2023-03-05T01:41:45;2.33;72.73
57709;SHT35;42558;52.388;13.390;2023-03-05T01:44:21;2.32;72.43
57709;SHT35;42558;52.388;13.390;2023-03-05T01:46:55;2.26;72.81
57709;SHT35;42558;52.388;13.390;2023-03-05T01:52:18;2.19;72.43
57709;SHT35;42558;52.388;13.390;2023-03-05T01:54:50;2.16;72.29
57709;SHT35;42558;52.388;13.390;2023-03-05T01:57:37;2.12;72.38
57709;SHT35;42558;52.388;13.390;2023-03-05T02:00:21;2.05;72.35
57709;SHT35;42558;52.388;13.390;2023-03-05T02:03:02;2.02;71.68
57709;SHT35;42558;52.388;13.390;2023-03-05T02:05:36;2.01;71.03
57709;SHT35;42558;52.388;13.390;2023-03-05T02:08:10;2.01;70.65
57709;SHT35;42558;52.388;13.390;2023-03-05T02:10:45;1.99;70.26
57709;SHT35;42558;52.388;13.390;2023-03-05T02:13:26;1.96;70.13
57709;SHT35;42558;52.388;13.390;2023-03-05T02:16:04;1.95;69.57
57709;SHT35;42558;52.388;13.390;2023-03-05T02:18:34;1.92;69.91
57709;SHT35;42558;52.388;13.390;2023-03-05T02:21:05;1.88;69.38
57709;SHT35;42558;52.388;13.390;2023-03-05T02:23:39;1.86;69.35
57709;SHT35;42558;52.388;13.390;2023-03-05T02:26:09;1.85;68.77
57709;SHT35;42558;52.388;13.390;2023-03-05T02:31:20;1.81;68.97
57709;SHT35;42558;52.388;13.390;2023-03-05T02:33:54;1.82;68.64
57709;SHT35;42558;52.388;13.390;2023-03-05T02:36:24;1.82;68.48
57709;SHT35;42558;52.388;13.390;2023-03-05T02:38:55;1.80;68.34
57709;SHT35;42558;52.388;13.390;2023-03-05T02:41:25;1.81;68.36
57709;SHT35;42558;52.388;13.390;2023-03-05T02:43:55;1.79;68.33
57709;SHT35;42558;52.388;13.390;2023-03-05T02:46:25;1.80;67.99
57709;SHT35;42558;52.388;13.390;2023-03-05T02:48:55;1.80;67.96
57709;SHT35;42558;52.388;13.390;2023-03-05T02:51:25;1.82;67.70
57709;SHT35;42558;52.388;13.390;2023-03-05T02:53:54;1.79;68.47
57709;SHT35;42558;52.388;13.390;2023-03-05T02:56:24;1.75;69.02
57709;SHT35;42558;52.388;13.390;2023-03-05T02:58:54;1.74;68.65
57709;SHT35;42558;52.388;13.390;2023-03-05T03:01:24;1.74;68.80
57709;SHT35;42558;52.388;13.390;2023-03-05T03:03:56;1.72;68.78
57709;SHT35;42558;52.388;13.390;2023-03-05T03:06:27;1.71;68.94
57709;SHT35;42558;52.388;13.390;2023-03-05T03:08:57;1.69;69.39
57709;SHT35;42558;52.388;13.390;2023-03-05T03:11:27;1.68;69.50
57709;SHT35;42558;52.388;13.390;2023-03-05T03:13:55;1.69;69.74
57709;SHT35;42558;52.388;13.390;2023-03-05T03:16:24;1.67;69.98
57709;SHT35;42558;52.388;13.390;2023-03-05T03:18:52;1.69;69.95
57709;SHT35;42558;52.388;13.390;2023-03-05T03:21:22;1.68;70.36
57709;SHT35;42558;52.388;13.390;2023-03-05T03:23:53;1.67;70.48
57709;SHT35;42558;52.388;13.390;2023-03-05T03:26:21;1.68;70.63
57709;SHT35;42558;52.388;13.390;2023-03-05T03:28:50;1.70;70.60
57709;SHT35;42558;52.388;13.390;2023-03-05T03:31:18;1.72;70.63
57709;SHT35;42558;52.388;13.390;2023-03-05T03:33:46;1.73;70.61
57709;SHT35;42558;52.388;13.390;2023-03-05T03:36:15;1.72;70.72
57709;SHT35;42558;52.388;13.390;2023-03-05T03:38:43;1.71;70.94
57709;SHT35;42558;52.388;13.390;2023-03-05T03:41:12;1.67;71.08
57709;SHT35;42558;52.388;13.390;2023-03-05T03:43:40;1.68;70.77
57709;SHT35;42558;52.388;13.390;2023-03-05T03:46:09;1.64;70.84
57709;SHT35;42558;52.388;13.390;2023-03-05T03:48:37;1.57;71.06
57709;SHT35;42558;52.388;13.390;2023-03-05T03:51:06;1.55;71.32
57709;SHT35;42558;52.388;13.390;2023-03-05T03:53:34;1.53;71.26
57709;SHT35;42558;52.388;13.390;2023-03-05T03:56:02;1.51;71.36
57709;SHT35;42558;52.388;13.390;2023-03-05T03:58:31;1.47;71.62
57709;SHT35;42558;52.388;13.390;2023-03-05T04:00:59;1.44;71.93
57709;SHT35;42558;52.388;13.390;2023-03-05T04:03:28;1.44;72.02
57709;SHT35;42558;52.388;13.390;2023-03-05T04:05:56;1.41;72.18
57709;SHT35;42558;52.388;13.390;2023-03-05T04:08:25;1.35;72.51
57709;SHT35;42558;52.388;13.390;2023-03-05T04:10:53;1.36;72.67
57709;SHT35;42558;52.388;13.390;2023-03-05T04:13:22;1.31;73.07
57709;SHT35;42558;52.388;13.390;2023-03-05T04:15:51;1.26;73.52
57709;SHT35;42558;52.388;13.390;2023-03-05T04:18:22;1.31;73.63
57709;SHT35;42558;52.388;13.390;2023-03-05T04:20:51;1.27;73.85
57709;SHT35;42558;52.388;13.390;2023-03-05T04:23:19;1.23;74.10
57709;SHT35;42558;52.388;13.390;2023-03-05T04:25:48;1.16;74.66
57709;SHT35;42558;52.388;13.390;2023-03-05T04:28:16;1.14;74.98
57709;SHT35;42558;52.388;13.390;2023-03-05T04:30:45;1.13;75.13
57709;SHT35;42558;52.388;13.390;2023-03-05T04:33:13;1.10;75.45
57709;SHT35;42558;52.388;13.390;2023-03-05T04:35:41;1.10;75.72
57709;SHT35;42558;52.388;13.390;2023-03-05T04:38:10;1.09;75.94
57709;SHT35;42558;52.388;13.390;2023-03-05T04:40:38;1.12;76.07
57709;SHT35;42558;52.388;13.390;2023-03-05T04:43:07;1.10;76.21
57709;SHT35;42558;52.388;13.390;2023-03-05T04:45:37;1.09;76.45
57709;SHT35;42558;52.388;13.390;2023-03-05T04:48:12;1.07;76.72
57709;SHT35;42558;52.388;13.390;2023-03-05T04:50:42;1.10;76.69
57709;SHT35;42558;52.388;13.390;2023-03-05T04:53:12;1.08;76.81
57709;SHT35;42558;52.388;13.390;2023-03-05T04:55:42;1.08;77.03
57709;SHT35;42558;52.388;13.390;2023-03-05T04:58:12;1.10;77.02
57709;SHT35;42558;52.388;13.390;2023-03-05T05:00:42;1.10;77.06
57709;SHT35;42558;52.388;13.390;2023-03-05T05:03:12;1.08;77.17
57709;SHT35;42558;52.388;13.390;2023-03-05T05:05:42;1.04;77.37
57709;SHT35;42558;52.388;13.390;2023-03-05T05:08:12;1.04;77.51
57709;SHT35;42558;52.388;13.390;2023-03-05T05:10:42;1.05;77.61
57709;SHT35;42558;52.388;13.390;2023-03-05T05:13:11;1.10;77.50
57709;SHT35;42558;52.388;13.390;2023-03-05T05:15:41;1.05;77.75
57709;SHT35;42558;52.388;13.390;2023-03-05T05:18:11;1.01;77.91
57709;SHT35;42558;52.388;13.390;2023-03-05T05:20:41;1.01;78.03
57709;SHT35;42558;52.388;13.390;2023-03-05T05:23:11;0.98;78.09
57709;SHT35;42558;52.388;13.390;2023-03-05T05:25:42;1.03;78.10
57709;SHT35;42558;52.388;13.390;2023-03-05T05:28:12;1.03;78.07
57709;SHT35;42558;52.388;13.390;2023-03-05T05:30:42;1.00;78.17
57709;SHT35;42558;52.388;13.390;2023-03-05T05:33:11;0.96;78.46
57709;SHT35;42558;52.388;13.390;2023-03-05T05:35:41;0.98;78.50
57709;SHT35;42558;52.388;13.390;2023-03-05T05:38:12;0.94;78.53
57709;SHT35;42558;52.388;13.390;2023-03-05T05:40:42;1.01;78.47
57709;SHT35;42558;52.388;13.390;2023-03-05T05:43:12;1.00;78.39
57709;SHT35;42558;52.388;13.390;2023-03-05T05:45:42;0.96;78.62
57709;SHT35;42558;52.388;13.390;2023-03-05T05:48:13;1.02;78.63
57709;SHT35;42558;52.388;13.390;2023-03-05T05:50:43;0.99;78.65
57709;SHT35;42558;52.388;13.390;2023-03-05T05:53:13;0.97;78.82
57709;SHT35;42558;52.388;13.390;2023-03-05T05:55:42;0.98;78.92
57709;SHT35;42558;52.388;13.390;2023-03-05T05:58:12;1.04;78.74
57709;SHT35;42558;52.388;13.390;2023-03-05T06:00:42;1.05;78.80
57709;SHT35;42558;52.388;13.390;2023-03-05T06:03:12;1.10;78.74
57709;SHT35;42558;52.388;13.390;2023-03-05T06:05:43;1.10;78.83
57709;SHT35;42558;52.388;13.390;2023-03-05T06:08:13;1.14;78.94
57709;SHT35;42558;52.388;13.390;2023-03-05T06:10:43;1.19;79.00
57709;SHT35;42558;52.388;13.390;2023-03-05T06:13:13;1.25;78.97
57709;SHT35;42558;52.388;13.390;2023-03-05T06:15:42;1.28;79.07
57709;SHT35;42558;52.388;13.390;2023-03-05T06:18:12;1.33;79.10
57709;SHT35;42558;52.388;13.390;2023-03-05T06:20:42;1.35;79.01
57709;SHT35;42558;52.388;13.390;2023-03-05T06:23:12;1.40;78.90
57709;SHT35;42558;52.388;13.390;2023-03-05T06:25:41;1.43;78.88
57709;SHT35;42558;52.388;13.390;2023-03-05T06:28:09;1.46;78.87
57709;SHT35;42558;52.388;13.390;2023-03-05T06:30:36;1.49;78.92
57709;SHT35;42558;52.388;13.390;2023-03-05T06:33:06;1.51;78.76
57709;SHT35;42558;52.388;13.390;2023-03-05T06:35:37;1.56;78.52
57709;SHT35;42558;52.388;13.390;2023-03-05T06:38:08;1.58;78.35
57709;SHT35;42558;52.388;13.390;2023-03-05T06:40:38;1.60;78.39
57709;SHT35;42558;52.388;13.390;2023-03-05T06:43:08;1.62;78.45
57709;SHT35;42558;52.388;13.390;2023-03-05T06:45:38;1.66;78.03
57709;SHT35;42558;52.388;13.390;2023-03-05T06:48:08;1.70;77.70
57709;SHT35;42558;52.388;13.390;2023-03-05T06:50:38;1.72;77.74
57709;SHT35;42558;52.388;13.390;2023-03-05T06:53:08;1.76;77.74
57709;SHT35;42558;52.388;13.390;2023-03-05T06:55:38;1.77;77.74
57709;SHT35;42558;52.388;13.390;2023-03-05T06:58:08;1.79;77.65
57709;SHT35;42558;52.388;13.390;2023-03-05T07:00:38;1.81;77.91
57709;SHT35;42558;52.388;13.390;2023-03-05T07:03:08;1.85;78.02
57709;SHT35;42558;52.388;13.390;2023-03-05T07:05:42;1.86;78.02
57709;SHT35;42558;52.388;13.390;2023-03-05T07:08:10;1.86;78.01
57709;SHT35;42558;52.388;13.390;2023-03-05T07:10:39;1.88;77.74
57709;SHT35;42558;52.388;13.390;2023-03-05T07:13:11;1.90;77.54
57709;SHT35;42558;52.388;13.390;2023-03-05T07:15:42;1.94;77.55
57709;SHT35;42558;52.388;13.390;2023-03-05T07:18:12;1.95;77.04
57709;SHT35;42558;52.388;13.390;2023-03-05T07:20:41;1.98;76.65
57709;SHT35;42558;52.388;13.390;2023-03-05T07:23:12;2.03;76.45
57709;SHT35;42558;52.388;13.390;2023-03-05T07:25:42;2.12;76.08
57709;SHT35;42558;52.388;13.390;2023-03-05T07:28:11;2.19;75.85
57709;SHT35;42558;52.388;13.390;2023-03-05T07:30:41;2.28;75.57
57709;SHT35;42558;52.388;13.390;2023-03-05T07:33:11;2.24;75.03
57709;SHT35;42558;52.388;13.390;2023-03-05T07:35:41;2.27;75.03
57709;SHT35;42558;52.388;13.390;2023-03-05T07:38:11;2.34;74.57
57709;SHT35;42558;52.388;13.390;2023-03-05T07:40:41;2.40;74.33
57709;SHT35;42558;52.388;13.390;2023-03-05T07:43:11;2.47;74.27
57709;SHT35;42558;52.388;13.390;2023-03-05T07:45:42;2.48;74.04
57709;SHT35;42558;52.388;13.390;2023-03-05T07:48:15;2.41;73.99
57709;SHT35;42558;52.388;13.390;2023-03-05T07:50:49;2.43;73.89
57709;SHT35;42558;52.388;13.390;2023-03-05T07:53:19;2.43;73.46
57709;SHT35;42558;52.388;13.390;2023-03-05T07:55:49;2.48;73.21
57709;SHT35;42558;52.388;13.390;2023-03-05T07:58:18;2.56;72.83
57709;SHT35;42558;52.388;13.390;2023-03-05T08:00:48;2.60;72.66
57709;SHT35;42558;52.388;13.390;2023-03-05T08:03:19;2.74;72.62
57709;SHT35;42558;52.388;13.390;2023-03-05T08:05:48;2.90;72.18
57709;SHT35;42558;52.388;13.390;2023-03-05T08:08:18;2.96;71.85
57709;SHT35;42558;52.388;13.390;2023-03-05T08:10:47;2.84;70.75
57709;SHT35;42558;52.388;13.390;2023-03-05T08:13:15;2.75;70.79
57709;SHT35;42558;52.388;13.390;2023-03-05T08:15:44;2.79;69.90
57709;SHT35;42558;52.388;13.390;2023-03-05T08:18:12;2.95;69.66
57709;SHT35;42558;52.388;13.390;2023-03-05T08:20:41;3.31;69.11
57709;SHT35;42558;52.388;13.390;2023-03-05T08:23:09;3.58;68.17
57709;SHT35;42558;52.388;13.390;2023-03-05T08:25:38;3.95;66.63
57709;SHT35;42558;52.388;13.390;2023-03-05T08:28:06;4.03;65.74
57709;SHT35;42558;52.388;13.390;2023-03-05T08:30:34;3.85;65.87
57709;SHT35;42558;52.388;13.390;2023-03-05T08:33:03;3.61;65.88
57709;SHT35;42558;52.388;13.390;2023-03-05T08:35:31;3.90;65.24
57709;SHT35;42558;52.388;13.390;2023-03-05T08:38:00;3.93;64.60
57709;SHT35;42558;52.388;13.390;2023-03-05T08:40:28;3.90;65.22
57709;SHT35;42558;52.388;13.390;2023-03-05T08:42:57;3.51;63.78
57709;SHT35;42558;52.388;13.390;2023-03-05T08:45:26;3.52;64.78
57709;SHT35;42558;52.388;13.390;2023-03-05T08:47:53;3.75;64.65
57709;SHT35;42558;52.388;13.390;2023-03-05T08:50:25;4.02;63.23
57709;SHT35;42558;52.388;13.390;2023-03-05T08:52:53;4.14;62.20
57709;SHT35;42558;52.388;13.390;2023-03-05T08:55:25;3.96;63.49
57709;SHT35;42558;52.388;13.390;2023-03-05T08:57:55;3.86;65.08
57709;SHT35;42558;52.388;13.390;2023-03-05T09:00:24;3.83;65.66
57709;SHT35;42558;52.388;13.390;2023-03-05T09:02:54;3.71;65.72
57709;SHT35;42558;52.388;13.390;2023-03-05T09:05:24;3.79;65.38
57709;SHT35;42558;52.388;13.390;2023-03-05T09:07:54;3.80;64.72
57709;SHT35;42558;52.388;13.390;2023-03-05T09:10:24;3.92;64.42
57709;SHT35;42558;52.388;13.390;2023-03-05T09:12:54;4.06;64.15
57709;SHT35;42558;52.388;13.390;2023-03-05T09:15:24;3.99;63.46
57709;SHT35;42558;52.388;13.390;2023-03-05T09:17:54;4.00;62.91
57709;SHT35;42558;52.388;13.390;2023-03-05T09:20:24;3.97;63.05
57709;SHT35;42558;52.388;13.390;2023-03-05T09:22:54;3.89;63.12
57709;SHT35;42558;52.388;13.390;2023-03-05T09:25:24;3.90;62.88
57709;SHT35;42558;52.388;13.390;2023-03-05T09:27:54;3.93;62.35
57709;SHT35;42558;52.388;13.390;2023-03-05T09:30:24;3.87;63.20
57709;SHT35;42558;52.388;13.390;2023-03-05T09:32:53;3.81;63.43
57709;SHT35;42558;52.388;13.390;2023-03-05T09:35:23;3.87;63.08
57709;SHT35;42558;52.388;13.390;2023-03-05T09:37:53;3.62;62.96
57709;SHT35;42558;52.388;13.390;2023-03-05T09:40:23;3.70;62.04
57709;SHT35;42558;52.388;13.390;2023-03-05T09:43:02;3.73;62.30
57709;SHT35;42558;52.388;13.390;2023-03-05T09:49:44;3.88;62.27
57709;SHT35;42558;52.388;13.390;2023-03-05T09:51:51;3.65;62.50
57709;SHT35;42558;52.388;13.390;2023-03-05T09:54:35;3.67;63.24
57709;SHT35;42558;52.388;13.390;2023-03-05T09:57:12;3.84;62.81
57709;SHT35;42558;52.388;13.390;2023-03-05T09:59:53;4.08;61.13
57709;SHT35;42558;52.388;13.390;2023-03-05T10:02:30;4.19;61.18
57709;SHT35;42558;52.388;13.390;2023-03-05T10:05:12;4.10;61.56
57709;SHT35;42558;52.388;13.390;2023-03-05T10:07:56;4.21;62.04
57709;SHT35;42558;52.388;13.390;2023-03-05T10:10:40;4.32;61.44
57709;SHT35;42558;52.388;13.390;2023-03-05T10:13:24;4.31;60.54
57709;SHT35;42558;52.388;13.390;2023-03-05T10:28:03;3.98;60.73
57709;SHT35;42558;52.388;13.390;2023-03-05T10:30:55;4.27;60.75
57709;SHT35;42558;52.388;13.390;2023-03-05T10:34:03;4.24;61.07
57709;SHT35;42558;52.388;13.390;2023-03-05T10:37:04;4.33;60.35
57709;SHT35;42558;52.388;13.390;2023-03-05T10:45:45;4.77;59.27
57709;SHT35;42558;52.388;13.390;2023-03-05T10:48:27;4.95;60.13
57709;SHT35;42558;52.388;13.390;2023-03-05T10:54:26;4.77;60.31
57709;SHT35;42558;52.388;13.390;2023-03-05T10:59:56;5.56;59.11
57709;SHT35;42558;52.388;13.390;2023-03-05T11:11:07;5.33;59.84
57709;SHT35;42558;52.388;13.390;2023-03-05T11:16:33;5.27;58.08
57709;SHT35;42558;52.388;13.390;2023-03-05T11:19:17;5.15;59.60
57709;SHT35;42558;52.388;13.390;2023-03-05T11:27:50;4.59;60.80
57709;SHT35;42558;52.388;13.390;2023-03-05T11:30:42;4.60;61.01
57709;SHT35;42558;52.388;13.390;2023-03-05T11:33:26;4.33;61.74
57709;SHT35;42558;52.388;13.390;2023-03-05T11:36:32;4.12;62.72
57709;SHT35;42558;52.388;13.390;2023-03-05T11:41:49;3.90;65.99
57709;SHT35;42558;52.388;13.390;2023-03-05T11:44:28;3.81;67.17
57709;SHT35;42558;52.388;13.390;2023-03-05T11:53:01;3.63;70.04
57709;SHT35;42558;52.388;13.390;2023-03-05T12:01:59;4.11;69.32
57709;SHT35;42558;52.388;13.390;2023-03-05T12:04:36;4.12;69.50
57709;SHT35;42558;52.388;13.390;2023-03-05T12:07:05;3.78;69.69
57709;SHT35;42558;52.388;13.390;2023-03-05T12:09:48;3.70;70.61
57709;SHT35;42558;52.388;13.390;2023-03-05T12:18:39;3.52;70.70
57709;SHT35;42558;52.388;13.390;2023-03-05T12:21:42;3.29;72.24
57709;SHT35;42558;52.388;13.390;2023-03-05T12:32:00;3.95;71.93
57709;SHT35;42558;52.388;13.390;2023-03-05T12:34:35;3.99;71.30
57709;SHT35;42558;52.388;13.390;2023-03-05T12:42:46;4.34;70.28
57709;SHT35;42558;52.388;13.390;2023-03-05T12:45:26;4.36;69.96
57709;SHT35;42558;52.388;13.390;2023-03-05T12:53:15;4.22;69.28
57709;SHT35;42558;52.388;13.390;2023-03-05T12:55:50;4.12;69.35
57709;SHT35;42558;52.388;13.390;2023-03-05T12:58:46;4.22;69.25
57709;SHT35;42558;52.388;13.390;2023-03-05T13:01:37;4.17;68.18
57709;SHT35;42558;52.388;13.390;2023-03-05T13:04:30;4.16;68.44
57709;SHT35;42558;52.388;13.390;2023-03-05T13:07:11;4.05;68.51
57709;SHT35;42558;52.388;13.390;2023-03-05T13:09:52;3.90;68.81
57709;SHT35;42558;52.388;13.390;2023-03-05T13:12:26;3.52;70.37
57709;SHT35;42558;52.388;13.390;2023-03-05T13:14:59;2.97;73.80
57709;SHT35;42558;52.388;13.390;2023-03-05T13:17:35;2.79;75.98
57709;SHT35;42558;52.388;13.390;2023-03-05T13:20:31;2.95;76.83
57709;SHT35;42558;52.388;13.390;2023-03-05T13:28:44;3.44;76.30
57709;SHT35;42558;52.388;13.390;2023-03-05T13:32:01;3.54;74.86
57709;SHT35;42558;52.388;13.390;2023-03-05T13:34:54;3.74;74.18
57709;SHT35;42558;52.388;13.390;2023-03-05T13:37:32;3.68;73.19
57709;SHT35;42558;52.388;13.390;2023-03-05T13:40:25;3.72;72.57
57709;SHT35;42558;52.388;13.390;2023-03-05T13:43:14;3.67;72.09
57709;SHT35;42558;52.388;13.390;2023-03-05T13:45:52;3.82;71.34
57709;SHT35;42558;52.388;13.390;2023-03-05T13:48:26;3.76;70.47
57709;SHT35;42558;52.388;13.390;2023-03-05T13:50:56;3.56;70.31
57709;SHT35;42558;52.388;13.390;2023-03-05T13:53:28;3.54;70.65
57709;SHT35;42558;52.388;13.390;2023-03-05T13:56:01;3.53;69.45
57709;SHT35;42558;52.388;13.390;2023-03-05T13:58:44;3.70;70.02
57709;SHT35;42558;52.388;13.390;2023-03-05T14:01:24;3.83;68.88
57709;SHT35;42558;52.388;13.390;2023-03-05T14:03:59;3.80;68.00
57709;SHT35;42558;52.388;13.390;2023-03-05T14:15:19;3.73;67.16
57709;SHT35;42558;52.388;13.390;2023-03-05T14:23:41;3.75;67.85
57709;SHT35;42558;52.388;13.390;2023-03-05T14:31:43;3.64;69.18
57709;SHT35;42558;52.388;13.390;2023-03-05T14:34:35;3.68;69.03
57709;SHT35;42558;52.388;13.390;2023-03-05T14:37:22;3.70;68.99
57709;SHT35;42558;52.388;13.390;2023-03-05T14:40:02;3.77;69.81
57709;SHT35;42558;52.388;13.390;2023-03-05T14:48:05;3.53;70.36
57709;SHT35;42558;52.388;13.390;2023-03-05T14:50:38;3.33;71.28
57709;SHT35;42558;52.388;13.390;2023-03-05T14:53:23;3.06;73.85
57709;SHT35;42558;52.388;13.390;2023-03-05T14:56:03;2.91;75.62
57709;SHT35;42558;52.388;13.390;2023-03-05T14:58:47;3.01;75.67
57709;SHT35;42558;52.388;13.390;2023-03-05T15:01:15;2.95;75.07
57709;SHT35;42558;52.388;13.390;2023-03-05T15:03:44;2.99;75.53
57709;SHT35;42558;52.388;13.390;2023-03-05T15:06:23;3.01;75.24
57709;SHT35;42558;52.388;13.390;2023-03-05T15:09:17;2.89;74.49
57709;SHT35;42558;52.388;13.390;2023-03-05T15:11:49;2.82;73.80
57709;SHT35;42558;52.388;13.390;2023-03-05T15:14:19;2.84;73.56
57709;SHT35;42558;52.388;13.390;2023-03-05T15:16:49;2.76;73.07
57709;SHT35;42558;52.388;13.390;2023-03-05T15:19:18;2.76;72.97
57709;SHT35;42558;52.388;13.390;2023-03-05T15:21:48;2.89;73.50
57709;SHT35;42558;52.388;13.390;2023-03-05T15:24:18;2.82;73.50
57709;SHT35;42558;52.388;13.390;2023-03-05T15:26:48;2.82;73.55
57709;SHT35;42558;52.388;13.390;2023-03-05T15:29:18;2.72;73.58
57709;SHT35;42558;52.388;13.390;2023-03-05T15:31:51;2.72;73.61
57709;SHT35;42558;52.388;13.390;2023-03-05T15:34:21;2.65;73.17
57709;SHT35;42558;52.388;13.390;2023-03-05T15:36:51;2.69;73.55
57709;SHT35;42558;52.388;13.390;2023-03-05T15:39:22;2.70;73.72
57709;SHT35;42558;52.388;13.390;2023-03-05T15:41:53;2.65;73.55
57709;SHT35;42558;52.388;13.390;2023-03-05T15:44:24;2.65;73.59
57709;SHT35;42558;52.388;13.390;2023-03-05T15:46:55;2.67;73.63
57709;SHT35;42558;52.388;13.390;2023-03-05T15:49:25;2.63;73.47
57709;SHT35;42558;52.388;13.390;2023-03-05T15:51:55;2.62;73.36
57709;SHT35;42558;52.388;13.390;2023-03-05T15:54:25;2.48;73.20
57709;SHT35;42558;52.388;13.390;2023-03-05T15:56:56;2.50;74.00
57709;SHT35;42558;52.388;13.390;2023-03-05T15:59:25;2.49;73.86
57709;SHT35;42558;52.388;13.390;2023-03-05T16:01:55;2.49;73.87
57709;SHT35;42558;52.388;13.390;2023-03-05T16:04:23;2.47;73.73
57709;SHT35;42558;52.388;13.390;2023-03-05T16:06:50;2.45;74.01
57709;SHT35;42558;52.388;13.390;2023-03-05T16:09:20;2.46;73.91
57709;SHT35;42558;52.388;13.390;2023-03-05T16:11:50;2.50;74.04
57709;SHT35;42558;52.388;13.390;2023-03-05T16:14:22;2.52;73.87
57709;SHT35;42558;52.388;13.390;2023-03-05T16:16:56;2.51;73.41
57709;SHT35;42558;52.388;13.390;2023-03-05T16:19:31;2.52;73.61
57709;SHT35;42558;52.388;13.390;2023-03-05T16:22:08;2.49;73.62
57709;SHT35;42558;52.388;13.390;2023-03-05T16:24:38;2.46;73.35
57709;SHT35;42558;52.388;13.390;2023-03-05T16:27:08;2.39;73.77
57709;SHT35;42558;52.388;13.390;2023-03-05T16:29:39;2.34;73.35
57709;SHT35;42558;52.388;13.390;2023-03-05T16:32:09;2.30;73.49
57709;SHT35;42558;52.388;13.390;2023-03-05T16:34:39;2.27;74.04
57709;SHT35;42558;52.388;13.390;2023-03-05T16:37:08;2.27;74.35
57709;SHT35;42558;52.388;13.390;2023-03-05T16:39:38;2.24;74.52
57709;SHT35;42558;52.388;13.390;2023-03-05T16:42:09;2.24;74.55
57709;SHT35;42558;52.388;13.390;2023-03-05T16:44:43;2.26;74.74
57709;SHT35;42558;52.388;13.390;2023-03-05T16:47:15;2.20;74.70
57709;SHT35;42558;52.388;13.390;2023-03-05T16:49:45;2.17;74.68
57709;SHT35;42558;52.388;13.390;2023-03-05T16:52:14;2.12;74.75
57709;SHT35;42558;52.388;13.390;2023-03-05T16:54:49;2.13;75.01
57709;SHT35;42558;52.388;13.390;2023-03-05T16:57:18;2.13;75.32
57709;SHT35;42558;52.388;13.390;2023-03-05T16:59:51;2.11;75.62
57709;SHT35;42558;52.388;13.390;2023-03-05T17:02:22;2.08;75.94
57709;SHT35;42558;52.388;13.390;2023-03-05T17:04:50;2.08;75.90
57709;SHT35;42558;52.388;13.390;2023-03-05T17:07:19;2.09;76.10
57709;SHT35;42558;52.388;13.390;2023-03-05T17:09:47;2.07;76.57
57709;SHT35;42558;52.388;13.390;2023-03-05T17:12:16;2.03;76.99
57709;SHT35;42558;52.388;13.390;2023-03-05T17:14:44;2.02;77.51
57709;SHT35;42558;52.388;13.390;2023-03-05T17:17:15;2.00;77.89
57709;SHT35;42558;52.388;13.390;2023-03-05T17:19:44;1.96;78.42
57709;SHT35;42558;52.388;13.390;2023-03-05T17:22:12;1.96;78.66
57709;SHT35;42558;52.388;13.390;2023-03-05T17:24:44;1.95;79.17
57709;SHT35;42558;52.388;13.390;2023-03-05T17:27:15;1.96;79.52
57709;SHT35;42558;52.388;13.390;2023-03-05T17:29:50;1.89;80.19
57709;SHT35;42558;52.388;13.390;2023-03-05T17:32:17;1.81;80.74
57709;SHT35;42558;52.388;13.390;2023-03-05T17:34:47;1.80;81.05
57709;SHT35;42558;52.388;13.390;2023-03-05T17:37:15;1.77;81.37
57709;SHT35;42558;52.388;13.390;2023-03-05T17:39:47;1.68;81.92
57709;SHT35;42558;52.388;13.390;2023-03-05T17:42:15;1.66;82.09
57709;SHT35;42558;52.388;13.390;2023-03-05T17:44:48;1.68;82.30
57709;SHT35;42558;52.388;13.390;2023-03-05T17:47:17;1.64;82.48
57709;SHT35;42558;52.388;13.390;2023-03-05T17:49:48;1.58;82.84
57709;SHT35;42558;52.388;13.390;2023-03-05T17:52:17;1.52;83.27
57709;SHT35;42558;52.388;13.390;2023-03-05T17:54:49;1.50;83.42
57709;SHT35;42558;52.388;13.390;2023-03-05T17:57:21;1.43;83.92
57709;SHT35;42558;52.388;13.390;2023-03-05T17:59:51;1.41;84.39
57709;SHT35;42558;52.388;13.390;2023-03-05T18:02:21;1.43;84.51
57709;SHT35;42558;52.388;13.390;2023-03-05T18:04:51;1.50;84.52